createdAt,value
2019-05-22T00:02:39.600Z,99775.03
2019-05-22T00:05:15.818Z,99779.34
2019-05-22T00:07:48.040Z,99771.77
2019-05-22T00:10:22.340Z,99771.11
2019-05-22T00:12:54.458Z,99768.78
2019-05-22T00:15:24.843Z,99776.73
2019-05-22T00:17:54.501Z,99767.50
2019-05-22T00:20:26.143Z,99768.95
2019-05-22T00:22:56.914Z,99770.14
2019-05-22T00:25:28.527Z,99771.45
2019-05-22T00:27:59.722Z,99769.12
2019-05-22T00:30:32.250Z,99769.62
2019-05-22T00:33:02.284Z,99763.85
2019-05-22T00:35:32.283Z,99760.52
2019-05-22T00:38:05.850Z,99770.77
2019-05-22T00:40:37.937Z,99769.62
2019-05-22T00:43:13.871Z,99775.73
2019-05-22T00:45:39.555Z,99772.08
2019-05-22T00:48:09.214Z,99771.91
2019-05-22T00:50:40.545Z,99768.09
2019-05-22T00:53:11.805Z,99769.58
2019-05-22T00:55:43.666Z,99770.90
2019-05-22T00:58:17.722Z,99774.55
2019-05-22T01:00:49.019Z,99775.17
2019-05-22T01:03:20.550Z,99775.34
2019-05-22T01:05:51.739Z,99773.02
2019-05-22T01:08:22.207Z,99768.75
2019-05-22T01:10:54.703Z,99763.13
2019-05-22T01:13:26.234Z,99764.41
2019-05-22T01:15:56.456Z,99770.34
2019-05-22T01:18:28.300Z,99772.32
2019-05-22T01:20:59.671Z,99768.75
2019-05-22T01:23:30.864Z,99774.69
2019-05-22T01:26:01.533Z,99780.14
2019-05-22T01:28:33.341Z,99777.88
2019-05-22T01:31:10.568Z,99769.12
2019-05-22T01:33:44.803Z,99770.59
2019-05-22T01:36:16.165Z,99780.18
2019-05-22T01:38:45.789Z,99789.63
2019-05-22T01:41:19.866Z,99785.84
2019-05-22T01:43:51.405Z,99789.97
2019-05-22T01:46:22.033Z,99796.09
2019-05-22T01:48:55.799Z,99799.39
2019-05-22T01:51:25.626Z,99793.27
2019-05-22T01:53:55.814Z,99796.44
2019-05-22T01:56:27.252Z,99791.81
2019-05-22T01:58:58.123Z,99794.31
2019-05-22T02:01:27.816Z,99790.28
2019-05-22T02:03:59.169Z,99792.08
2019-05-22T02:06:30.053Z,99787.33
2019-05-22T02:09:13.219Z,99793.75
2019-05-22T02:11:45.743Z,99787.00
2019-05-22T02:14:17.619Z,99799.89
2019-05-22T02:16:56.671Z,99796.27
2019-05-22T02:19:21.005Z,99798.11
2019-05-22T02:21:51.874Z,99801.73
2019-05-22T02:24:22.836Z,99801.39
2019-05-22T02:26:52.921Z,99798.89
2019-05-22T02:29:24.020Z,99798.41
2019-05-22T02:31:56.043Z,99792.98
2019-05-22T02:34:26.133Z,99788.18
2019-05-22T02:36:57.729Z,99786.17
2019-05-22T02:39:32.770Z,99797.05
2019-05-22T02:42:08.420Z,99789.59
2019-05-22T02:44:38.460Z,99786.39
2019-05-22T02:47:19.737Z,99793.34
2019-05-22T02:49:43.182Z,99786.73
2019-05-22T02:52:12.810Z,99786.05
2019-05-22T02:54:42.954Z,99795.91
2019-05-22T02:57:12.900Z,99793.27
2019-05-22T02:59:43.247Z,99804.32
2019-05-22T03:02:15.326Z,99808.48
2019-05-22T03:04:48.100Z,99816.72
2019-05-22T03:07:18.460Z,99815.78
2019-05-22T03:09:48.379Z,99818.59
2019-05-22T03:12:19.931Z,99823.88
2019-05-22T03:14:49.640Z,99820.09
2019-05-22T03:17:30.879Z,99825.03
2019-05-22T03:20:04.284Z,99824.55
2019-05-22T03:22:40.858Z,99821.91
2019-05-22T03:25:15.341Z,99818.25
2019-05-22T03:27:50.692Z,99817.56
2019-05-22T03:30:24.471Z,99823.46
2019-05-22T03:32:55.638Z,99819.95
2019-05-22T03:35:28.119Z,99824.88
2019-05-22T03:37:59.167Z,99832.00
2019-05-22T03:40:30.962Z,99836.71
2019-05-22T03:43:04.023Z,99832.05
2019-05-22T03:45:36.159Z,99838.11
2019-05-22T03:48:06.261Z,99844.53
2019-05-22T03:50:37.541Z,99839.91
2019-05-22T03:53:16.450Z,99843.22
2019-05-22T03:55:48.641Z,99842.90
2019-05-22T03:58:18.742Z,99851.44
2019-05-22T04:00:53.223Z,99848.13
2019-05-22T04:03:24.208Z,99848.66
2019-05-22T04:05:54.403Z,99849.14
2019-05-22T04:08:26.534Z,99845.55
2019-05-22T04:10:59.936Z,99846.55
2019-05-22T04:13:30.831Z,99848.67
2019-05-22T04:16:02.205Z,99852.81
2019-05-22T04:18:32.748Z,99857.72
2019-05-22T04:21:03.271Z,99865.64
2019-05-22T04:23:33.282Z,99862.88
2019-05-22T04:26:05.145Z,99867.01
2019-05-22T04:28:38.558Z,99863.94
2019-05-22T04:31:08.685Z,99861.78
2019-05-22T04:33:38.433Z,99865.09
2019-05-22T04:36:10.363Z,99872.51
2019-05-22T04:38:39.881Z,99876.78
2019-05-22T04:41:10.183Z,99878.59
2019-05-22T04:43:39.947Z,99861.78
2019-05-22T04:46:09.912Z,99873.30
2019-05-22T04:48:39.746Z,99879.61
2019-05-22T04:51:30.175Z,99871.07
2019-05-22T04:53:59.869Z,99873.00
2019-05-22T04:56:30.063Z,99860.47
2019-05-22T04:59:01.536Z,99874.62
2019-05-22T05:01:31.229Z,99866.05
2019-05-22T05:04:01.626Z,99874.62
2019-05-22T05:06:34.167Z,99879.55
2019-05-22T05:09:06.805Z,99874.62
2019-05-22T05:11:38.832Z,99875.59
2019-05-22T05:14:08.499Z,99876.91
2019-05-22T05:16:38.393Z,99888.91
2019-05-22T05:19:08.166Z,99888.26
2019-05-22T05:21:38.742Z,99883.50
2019-05-22T05:24:08.630Z,99885.36
2019-05-22T05:26:39.262Z,99888.17
2019-05-22T05:29:12.423Z,99885.05
2019-05-22T05:31:42.386Z,99886.86
2019-05-22T05:34:27.139Z,99883.56
2019-05-22T05:36:57.612Z,99885.77
2019-05-22T05:39:33.630Z,99885.98
2019-05-22T05:42:03.657Z,99897.34
2019-05-22T05:44:33.952Z,99900.81
2019-05-22T05:47:05.947Z,99903.15
2019-05-22T05:49:36.167Z,99905.79
2019-05-22T05:52:07.222Z,99905.96
2019-05-22T05:54:37.809Z,99901.65
2019-05-22T05:57:36.645Z,99907.23
2019-05-22T06:00:10.247Z,99906.02
2019-05-22T06:02:54.038Z,99910.14
2019-05-22T06:05:12.191Z,99908.52
2019-05-22T06:07:42.158Z,99916.09
2019-05-22T06:10:30.129Z,99914.42
2019-05-22T06:13:01.652Z,99920.70
2019-05-22T06:15:47.091Z,99921.81
2019-05-22T06:18:26.890Z,99919.03
2019-05-22T06:21:04.033Z,99912.48
2019-05-22T06:23:32.660Z,99913.31
2019-05-22T06:26:03.071Z,99908.70
2019-05-22T06:28:35.834Z,99914.54
2019-05-22T06:31:07.269Z,99924.89
2019-05-22T06:33:38.733Z,99919.70
2019-05-22T06:36:12.484Z,99915.16
2019-05-22T06:38:59.738Z,99911.59
2019-05-22T06:41:33.005Z,99912.29
2019-05-22T06:44:22.587Z,99913.22
2019-05-22T06:46:52.477Z,99914.89
2019-05-22T06:49:34.531Z,99924.84
2019-05-22T06:52:06.133Z,99921.19
2019-05-22T06:54:36.821Z,99920.22
2019-05-22T06:57:10.253Z,99921.61
2019-05-22T06:59:41.027Z,99927.87
2019-05-22T07:02:13.066Z,99930.86
2019-05-22T07:04:43.467Z,99937.64
2019-05-22T07:07:14.188Z,99928.56
2019-05-22T07:09:44.911Z,99931.52
2019-05-22T07:12:16.239Z,99936.72
2019-05-22T07:14:54.757Z,99939.45
2019-05-22T07:17:25.702Z,99939.94
2019-05-22T07:19:55.738Z,99943.20
2019-05-22T07:22:25.908Z,99946.80
2019-05-22T07:24:55.743Z,99945.09
2019-05-22T07:27:26.905Z,99951.86
2019-05-22T07:29:57.110Z,99957.41
2019-05-22T07:32:30.752Z,99957.67
2019-05-22T07:34:58.846Z,99960.91
2019-05-22T07:37:30.361Z,99960.91
2019-05-22T07:40:00.058Z,99957.56
2019-05-22T07:42:30.556Z,99961.47
2019-05-22T07:45:00.405Z,99965.60
2019-05-22T07:47:30.358Z,99962.80
2019-05-22T07:50:00.386Z,99965.31
2019-05-22T07:52:31.155Z,99965.36
2019-05-22T07:55:02.591Z,99968.13
2019-05-22T07:57:32.954Z,99967.53
2019-05-22T08:00:03.707Z,99964.57
2019-05-22T08:02:36.916Z,99964.94
2019-05-22T08:05:07.288Z,99972.68
2019-05-22T08:07:40.157Z,99973.75
2019-05-22T08:10:14.052Z,99975.91
2019-05-22T08:12:45.357Z,99981.36
2019-05-22T08:15:16.710Z,99974.41
2019-05-22T08:17:46.702Z,99980.31
2019-05-22T08:20:16.555Z,99980.05
2019-05-22T08:22:47.623Z,99977.75
2019-05-22T08:25:17.588Z,99977.35
2019-05-22T08:27:49.670Z,99980.17
2019-05-22T08:30:22.002Z,99981.67
2019-05-22T08:32:53.277Z,99984.66
2019-05-22T08:35:23.842Z,99992.77
2019-05-22T08:37:54.715Z,99986.69
2019-05-22T08:40:25.021Z,99991.63
2019-05-22T08:42:55.519Z,99996.20
2019-05-22T08:45:25.447Z,100001.23
2019-05-22T08:47:55.090Z,100007.22
2019-05-22T08:50:28.994Z,100013.16
2019-05-22T08:52:58.741Z,100010.64
2019-05-22T08:55:29.558Z,100015.13
2019-05-22T08:57:59.465Z,100014.52
2019-05-22T09:00:30.804Z,100026.38
2019-05-22T09:03:01.532Z,100018.22
2019-05-22T09:05:31.761Z,100015.09
2019-05-22T09:08:01.706Z,100021.08
2019-05-22T09:10:32.933Z,100025.36
2019-05-22T09:13:03.734Z,100025.84
2019-05-22T09:15:34.986Z,100028.70
2019-05-22T09:18:05.117Z,100039.23
2019-05-22T09:20:48.756Z,100042.12
2019-05-22T09:23:07.725Z,100039.44
2019-05-22T09:25:37.761Z,100039.68
2019-05-22T09:28:07.962Z,100039.68
2019-05-22T09:30:37.902Z,100043.73
2019-05-22T09:33:09.172Z,100041.09
2019-05-22T09:35:39.119Z,100039.22
2019-05-22T09:38:08.782Z,100048.16
2019-05-22T09:40:38.657Z,100045.40
2019-05-22T09:43:08.336Z,100050.91
2019-05-22T09:45:37.968Z,100053.91
2019-05-22T09:48:07.906Z,100055.63
2019-05-22T09:50:37.714Z,100049.75
2019-05-22T09:53:08.018Z,100062.48
2019-05-22T09:55:38.418Z,100070.63
2019-05-22T09:58:08.415Z,100063.72
2019-05-22T10:00:38.433Z,100072.61
2019-05-22T10:03:09.317Z,100070.91
2019-05-22T10:05:39.164Z,100074.13
2019-05-22T10:08:09.231Z,100076.18
2019-05-22T10:10:39.031Z,100078.88
2019-05-22T10:13:08.779Z,100080.25
2019-05-22T10:15:39.762Z,100087.09
2019-05-22T10:18:10.776Z,100082.38
2019-05-22T10:20:42.007Z,100084.36
2019-05-22T10:23:15.914Z,100090.34
2019-05-22T10:25:43.507Z,100090.69
2019-05-22T10:28:13.383Z,100089.78
2019-05-22T10:30:43.147Z,100095.27
2019-05-22T10:33:12.903Z,100092.13
2019-05-22T10:35:43.219Z,100090.84
2019-05-22T10:38:12.967Z,100089.64
2019-05-22T10:40:42.780Z,100092.61
2019-05-22T10:43:12.603Z,100095.42
2019-05-22T10:45:42.376Z,100104.02
2019-05-22T10:48:12.288Z,100102.53
2019-05-22T10:50:42.039Z,100107.88
2019-05-22T10:53:12.107Z,100111.48
2019-05-22T10:55:41.879Z,100103.45
2019-05-22T10:58:11.888Z,100109.28
2019-05-22T11:00:41.830Z,100107.29
2019-05-22T11:03:11.997Z,100095.33
2019-05-22T11:05:42.567Z,100107.81
2019-05-22T11:08:12.242Z,100102.84
2019-05-22T11:10:45.193Z,100102.27
2019-05-22T11:13:14.596Z,100104.30
2019-05-22T11:15:44.890Z,100105.23
2019-05-22T11:18:15.036Z,100100.38
2019-05-22T11:20:45.141Z,100100.53
2019-05-22T11:23:14.933Z,100105.89
2019-05-22T11:25:45.131Z,100103.68
2019-05-22T11:28:14.896Z,100098.61
2019-05-22T11:30:44.862Z,100091.42
2019-05-22T11:33:14.763Z,100090.99
2019-05-22T11:35:45.511Z,100089.38
2019-05-22T11:38:15.612Z,100090.71
2019-05-22T11:40:45.435Z,100100.30
2019-05-22T11:43:15.426Z,100105.69
2019-05-22T11:45:45.692Z,100107.67
2019-05-22T11:48:15.820Z,100106.67
2019-05-22T11:50:46.414Z,100113.99
2019-05-22T11:53:16.124Z,100117.79
2019-05-22T11:55:46.598Z,100115.35
2019-05-22T11:58:16.433Z,100120.85
2019-05-22T12:00:46.067Z,100131.02
2019-05-22T12:03:15.745Z,100128.41
2019-05-22T12:05:45.640Z,100125.07
2019-05-22T12:08:15.302Z,100124.34
2019-05-22T12:10:45.131Z,100125.00
2019-05-22T12:13:15.126Z,100125.95
2019-05-22T12:15:45.193Z,100121.34
2019-05-22T12:18:15.150Z,100122.95
2019-05-22T12:20:44.851Z,100130.77
2019-05-22T12:23:14.500Z,100125.33
2019-05-22T12:25:44.129Z,100129.21
2019-05-22T12:28:13.798Z,100140.36
2019-05-22T12:30:43.841Z,100136.34
2019-05-22T12:33:14.488Z,100128.20
2019-05-22T12:35:44.936Z,100133.45
2019-05-22T12:38:14.918Z,100132.60
2019-05-22T12:40:45.113Z,100136.73
2019-05-22T12:43:16.041Z,100132.05
2019-05-22T12:45:46.079Z,100127.17
2019-05-22T12:48:15.836Z,100138.22
2019-05-22T12:50:45.641Z,100139.55
2019-05-22T12:53:16.167Z,100141.64
2019-05-22T12:55:45.972Z,100148.33
2019-05-22T12:58:15.647Z,100151.19
2019-05-22T13:00:45.551Z,100147.05
2019-05-22T13:03:15.570Z,100146.58
2019-05-22T13:05:46.066Z,100144.43
2019-05-22T13:08:16.369Z,100143.06
2019-05-22T13:10:46.549Z,100139.13
2019-05-22T13:13:16.275Z,100133.30
2019-05-22T13:15:45.978Z,100136.80
2019-05-22T13:18:18.772Z,100123.81
2019-05-22T13:20:50.870Z,100122.77
2019-05-22T13:23:23.275Z,100122.48
2019-05-22T13:25:54.840Z,100120.17
2019-05-22T13:28:27.310Z,100126.34
2019-05-22T13:30:58.283Z,100124.86
2019-05-22T13:33:31.564Z,100124.52
2019-05-22T13:36:01.485Z,100127.50
2019-05-22T13:38:31.251Z,100135.78
2019-05-22T13:41:01.279Z,100133.62
2019-05-22T13:43:31.967Z,100140.58
2019-05-22T13:46:01.681Z,100136.06
2019-05-22T13:48:31.459Z,100134.06
2019-05-22T13:51:01.482Z,100134.40
2019-05-22T13:53:32.360Z,100138.59
2019-05-22T13:56:02.476Z,100142.55
2019-05-22T13:58:33.377Z,100145.02
2019-05-22T14:01:03.317Z,100148.69
2019-05-22T14:03:33.428Z,100151.52
2019-05-22T14:06:04.161Z,100158.86
2019-05-22T14:08:33.920Z,100155.87
2019-05-22T14:11:04.594Z,100160.33
2019-05-22T14:13:35.433Z,100159.84
2019-05-22T14:16:05.564Z,100164.16
2019-05-22T14:18:35.245Z,100166.30
2019-05-22T14:21:05.426Z,100167.17
2019-05-22T14:23:35.405Z,100164.97
2019-05-22T14:26:05.521Z,100162.81
2019-05-22T14:28:36.226Z,100174.73
2019-05-22T14:31:06.208Z,100162.97
2019-05-22T14:33:40.242Z,100176.06
2019-05-22T14:36:07.899Z,100177.87
2019-05-22T14:38:37.639Z,100182.45
2019-05-22T14:41:07.818Z,100181.28
2019-05-22T14:43:37.719Z,100172.89
2019-05-22T14:46:07.615Z,100182.77
2019-05-22T14:48:39.478Z,100184.56
2019-05-22T14:51:09.353Z,100186.13
2019-05-22T14:53:40.096Z,100191.67
2019-05-22T14:56:11.254Z,100187.25
2019-05-22T14:58:43.765Z,100183.45
2019-05-22T15:01:13.573Z,100185.47
2019-05-22T15:03:43.675Z,100181.33
2019-05-22T15:06:14.180Z,100182.79
2019-05-22T15:08:43.894Z,100191.53
2019-05-22T15:11:15.643Z,100187.52
2019-05-22T15:13:45.670Z,100200.84
2019-05-22T15:16:15.375Z,100206.09
2019-05-22T15:18:45.107Z,100207.19
2019-05-22T15:21:16.048Z,100213.80
2019-05-22T15:23:47.814Z,100210.37
2019-05-22T15:26:17.501Z,100217.84
2019-05-22T15:28:47.153Z,100210.08
2019-05-22T15:31:17.023Z,100210.38
2019-05-22T15:33:47.162Z,100223.97
2019-05-22T15:36:18.976Z,100218.23
2019-05-22T15:38:49.838Z,100222.50
2019-05-22T15:41:19.473Z,100238.64
2019-05-22T15:43:53.204Z,100232.80
2019-05-22T15:46:24.543Z,100237.43
2019-05-22T15:48:55.894Z,100237.13
2019-05-22T15:51:29.867Z,100228.48
2019-05-22T15:54:02.675Z,100227.41
2019-05-22T15:56:34.372Z,100239.23
2019-05-22T15:59:07.008Z,100233.30
2019-05-22T16:01:37.360Z,100232.00
2019-05-22T16:04:10.161Z,100244.69
2019-05-22T16:06:40.384Z,100244.54
2019-05-22T16:09:14.243Z,100246.02
2019-05-22T16:11:46.464Z,100253.61
2019-05-22T16:14:16.306Z,100255.25
2019-05-22T16:16:48.917Z,100257.56
2019-05-22T16:19:21.019Z,100253.81
2019-05-22T16:21:52.125Z,100248.62
2019-05-22T16:24:21.848Z,100252.09
2019-05-22T16:26:53.000Z,100252.49
2019-05-22T16:29:24.610Z,100247.63
2019-05-22T16:31:56.020Z,100246.98
2019-05-22T16:34:28.506Z,100240.27
2019-05-22T16:36:58.409Z,100247.73
2019-05-22T16:39:28.223Z,100243.78
2019-05-22T16:41:58.223Z,100237.82
2019-05-22T16:44:28.228Z,100235.47
2019-05-22T16:46:58.996Z,100237.77
2019-05-22T16:49:30.210Z,100230.98
2019-05-22T16:52:11.883Z,100239.70
2019-05-22T16:54:42.917Z,100250.56
2019-05-22T16:57:13.010Z,100248.56
2019-05-22T16:59:42.820Z,100226.17
2019-05-22T17:02:14.179Z,100231.98
2019-05-22T17:04:44.052Z,100223.45
2019-05-22T17:07:14.052Z,100252.38
2019-05-22T17:09:44.420Z,100254.08
2019-05-22T17:12:16.904Z,100263.19
2019-05-22T17:14:48.713Z,100266.63
2019-05-22T17:17:19.401Z,100281.53
2019-05-22T17:19:49.567Z,100278.27
2019-05-22T17:22:20.157Z,100279.89
2019-05-22T17:24:49.781Z,100281.39
2019-05-22T17:27:20.422Z,100281.39
2019-05-22T17:29:51.576Z,100285.88
2019-05-22T17:32:23.045Z,100290.45
2019-05-22T17:34:52.684Z,100293.30
2019-05-22T17:37:22.409Z,100292.81
2019-05-22T17:39:52.445Z,100299.66
2019-05-22T17:42:24.995Z,100295.72
2019-05-22T17:44:55.513Z,100290.45
2019-05-22T17:47:26.357Z,100297.09
2019-05-22T17:50:04.209Z,100297.30
2019-05-22T17:52:34.180Z,100300.41
2019-05-22T17:55:09.435Z,100303.58
2019-05-22T17:57:40.431Z,100300.00
2019-05-22T18:00:29.384Z,100303.95
2019-05-22T18:03:00.236Z,100296.32
2019-05-22T18:05:30.945Z,100295.27
2019-05-22T18:08:01.406Z,100311.91
2019-05-22T18:10:33.906Z,100313.44
2019-05-22T18:13:06.051Z,100316.79
2019-05-22T18:15:36.122Z,100322.38
2019-05-22T18:18:07.062Z,100338.54
2019-05-22T18:20:43.345Z,100344.55
2019-05-22T18:23:09.319Z,100357.86
2019-05-22T18:25:39.145Z,100356.66
2019-05-22T18:28:10.433Z,100368.98
2019-05-22T18:30:41.963Z,100371.02
2019-05-22T18:33:13.138Z,100375.48
2019-05-22T18:35:43.320Z,100377.86
2019-05-22T18:38:13.012Z,100376.59
2019-05-22T18:40:42.661Z,100383.86
2019-05-22T18:43:13.690Z,100380.13
2019-05-22T18:45:43.412Z,100393.30
2019-05-22T18:48:13.333Z,100398.74
2019-05-22T18:50:42.987Z,100405.66
2019-05-22T18:53:12.633Z,100407.77
2019-05-22T18:55:42.291Z,100409.56
2019-05-22T18:58:12.181Z,100420.56
2019-05-22T19:00:42.211Z,100416.95
2019-05-22T19:03:11.919Z,100426.31
2019-05-22T19:05:42.550Z,100427.14
2019-05-22T19:08:12.238Z,100428.32
2019-05-22T19:10:42.146Z,100433.22
2019-05-22T19:13:14.476Z,100438.02
2019-05-22T19:15:43.629Z,100444.48
2019-05-22T19:18:13.438Z,100453.91
2019-05-22T19:20:43.838Z,100454.87
2019-05-22T19:23:13.530Z,100454.47
2019-05-22T19:25:43.198Z,100463.31
2019-05-22T19:28:13.012Z,100469.38
2019-05-22T19:30:42.805Z,100469.30
2019-05-22T19:33:14.805Z,100470.26
2019-05-22T19:35:43.960Z,100479.00
2019-05-22T19:38:14.010Z,100472.67
2019-05-22T19:40:43.725Z,100485.69
2019-05-22T19:43:13.692Z,100488.94
2019-05-22T19:45:43.893Z,100495.16
2019-05-22T19:48:15.030Z,100500.59
2019-05-22T19:50:46.014Z,100493.25
2019-05-22T19:53:19.442Z,100497.59
2019-05-22T19:55:49.014Z,100496.89
2019-05-22T19:58:22.148Z,100505.74
2019-05-22T20:00:50.627Z,100508.01
2019-05-22T20:03:20.993Z,100502.52
2019-05-22T20:05:51.027Z,100513.41
2019-05-22T20:08:20.904Z,100510.06
2019-05-22T20:10:51.503Z,100510.09
2019-05-22T20:13:22.840Z,100514.40
2019-05-22T20:15:52.512Z,100517.98
2019-05-22T20:18:22.377Z,100515.72
2019-05-22T20:20:52.612Z,100515.80
2019-05-22T20:23:35.586Z,100519.66
2019-05-22T20:25:54.372Z,100525.05
2019-05-22T20:28:24.981Z,100526.73
2019-05-22T20:30:55.110Z,100525.89
2019-05-22T20:33:26.966Z,100527.10
2019-05-22T20:35:56.305Z,100531.16
2019-05-22T20:38:26.481Z,100528.16
2019-05-22T20:40:56.131Z,100530.68
2019-05-22T20:43:27.600Z,100533.91
2019-05-22T20:45:58.201Z,100528.80
2019-05-22T20:48:29.804Z,100523.88
2019-05-22T20:51:01.065Z,100532.03
2019-05-22T20:53:32.750Z,100530.47
2019-05-22T20:56:04.304Z,100534.66
2019-05-22T20:58:36.529Z,100537.67
2019-05-22T21:01:07.624Z,100537.20
2019-05-22T21:03:38.188Z,100547.11
2019-05-22T21:06:12.282Z,100541.38
2019-05-22T21:08:44.055Z,100545.33
2019-05-22T21:11:16.308Z,100546.75
2019-05-22T21:13:46.047Z,100546.66
2019-05-22T21:16:17.280Z,100552.25
2019-05-22T21:18:49.357Z,100546.27
2019-05-22T21:21:20.297Z,100553.45
2019-05-22T21:23:50.055Z,100545.57
2019-05-22T21:26:20.631Z,100545.81
2019-05-22T21:28:53.585Z,100552.72
2019-05-22T21:31:22.409Z,100548.53
2019-05-22T21:33:52.825Z,100555.25
2019-05-22T21:36:23.803Z,100558.49
2019-05-22T21:38:53.938Z,100568.03
2019-05-22T21:41:23.628Z,100557.75
2019-05-22T21:43:54.223Z,100571.64
2019-05-22T21:46:24.297Z,100572.83
2019-05-22T21:48:55.764Z,100584.75
2019-05-22T21:51:25.559Z,100573.06
2019-05-22T21:53:55.718Z,100571.51
2019-05-22T21:56:25.346Z,100574.97
2019-05-22T21:58:55.330Z,100581.18
2019-05-22T22:01:29.501Z,100581.32
2019-05-22T22:04:07.780Z,100588.36
2019-05-22T22:06:37.581Z,100583.58
2019-05-22T22:09:08.635Z,100584.42
2019-05-22T22:11:38.601Z,100592.41
2019-05-22T22:14:08.959Z,100591.23
2019-05-22T22:16:39.734Z,100591.09
2019-05-22T22:19:11.038Z,100593.96
2019-05-22T22:21:40.742Z,100594.80
2019-05-22T22:24:10.804Z,100594.56
2019-05-22T22:26:40.691Z,100600.91
2019-05-22T22:29:10.672Z,100596.35
2019-05-22T22:31:41.696Z,100593.25
2019-05-22T22:34:14.360Z,100610.30
2019-05-22T22:36:44.552Z,100602.17
2019-05-22T22:39:15.141Z,100604.80
2019-05-22T22:41:46.177Z,100610.41
2019-05-22T22:44:16.459Z,100609.09
2019-05-22T22:46:50.891Z,100610.88
2019-05-22T22:49:21.330Z,100604.78
2019-05-22T22:51:53.184Z,100612.29
2019-05-22T22:54:23.313Z,100605.20
2019-05-22T22:56:53.490Z,100613.27
2019-05-22T22:59:23.506Z,100605.48
2019-05-22T23:01:56.542Z,100611.12
2019-05-22T23:04:28.499Z,100610.64
2019-05-22T23:07:03.136Z,100612.79
2019-05-22T23:09:37.045Z,100615.14
2019-05-22T23:12:09.806Z,100610.31
2019-05-22T23:14:44.571Z,100612.25
2019-05-22T23:17:15.725Z,100615.71
2019-05-22T23:19:45.814Z,100616.45
2019-05-22T23:22:15.787Z,100617.50
2019-05-22T23:24:46.136Z,100614.41
2019-05-22T23:27:17.743Z,100618.71
2019-05-22T23:29:48.261Z,100622.28
2019-05-22T23:32:18.638Z,100625.08
2019-05-22T23:34:49.081Z,100621.34
2019-05-22T23:37:22.433Z,100620.50
2019-05-22T23:39:53.509Z,100622.66
2019-05-22T23:42:27.102Z,100622.98
2019-05-22T23:44:58.357Z,100620.58
2019-05-22T23:47:28.155Z,100627.16
2019-05-22T23:49:58.045Z,100617.48
2019-05-22T23:52:27.941Z,100616.41
2019-05-22T23:54:57.882Z,100615.69
2019-05-22T23:57:28.198Z,100612.92
2019-05-22T23:59:58.764Z,100614.70
